Time;durP1;ratioP1;P1;durP2;ratioP2;P2;SDS_P1;SDS_P2;PMS_P1;PMS_P2;Temp;Humidity;BMP_temperature;BMP_pressure;BME280_temperature;BME280_humidity;BME280_pressure;Samples;Min_cycle;Max_cycle;Signal;HPM_P1;HPM_P2
2024/04/03 00:01:27;;;;;;;12.85;6.90;;;10.20;99.90;;;;;;5070001;28;20477;-79
2024/04/03 00:03:56;;;;;;;16.63;6.57;;;10.20;99.90;;;;;;5069846;28;20031;-78
2024/04/03 00:06:27;;;;;;;11.48;6.25;;;10.20;99.90;;;;;;5061168;28;20367;-79
2024/04/03 00:08:53;;;;;;;10.00;5.68;;;10.20;99.90;;;;;;5070100;28;20024;-79
2024/04/03 00:11:24;;;;;;;12.25;5.68;;;10.20;99.90;;;;;;5069477;28;20498;-79
2024/04/03 00:13:50;;;;;;;17.83;6.07;;;10.20;99.90;;;;;;5061683;28;20036;-79
2024/04/03 00:16:19;;;;;;;12.18;6.50;;;10.20;99.90;;;;;;5053049;28;20029;-79
2024/04/03 00:18:47;;;;;;;16.00;6.10;;;10.20;99.90;;;;;;5069389;28;20025;-79
2024/04/03 00:21:13;;;;;;;11.45;6.30;;;10.20;99.90;;;;;;5069177;28;20040;-79
2024/04/03 00:23:41;;;;;;;14.65;6.32;;;10.20;99.90;;;;;;5063021;28;20036;-79
2024/04/03 00:26:09;;;;;;;10.68;5.93;;;10.20;99.90;;;;;;5063258;28;20036;-79
2024/04/03 00:28:35;;;;;;;11.15;5.63;;;10.20;99.90;;;;;;5068659;28;20028;-79
2024/04/03 00:31:03;;;;;;;11.55;6.80;;;10.20;99.90;;;;;;5069079;28;20035;-79
2024/04/03 00:33:29;;;;;;;10.65;6.38;;;10.20;99.90;;;;;;5069482;28;20347;-79
2024/04/03 00:35:59;;;;;;;10.95;6.13;;;10.20;99.90;;;;;;5070706;28;20084;-79
2024/04/03 00:38:25;;;;;;;10.30;6.37;;;10.20;99.90;;;;;;5053953;28;20083;-79
2024/04/03 00:41:03;;;;;;;8.30;6.47;;;10.20;99.90;;;;;;5065340;28;20101;-79
2024/04/03 00:43:35;;;;;;;14.65;6.55;;;10.20;99.90;;;;;;5052596;28;20024;-79
2024/04/03 00:46:04;;;;;;;11.93;6.20;;;10.10;99.90;;;;;;5069035;28;20021;-79
2024/04/03 00:48:30;;;;;;;16.10;6.95;;;10.20;99.90;;;;;;5066862;28;20043;-79
2024/04/03 00:50:56;;;;;;;9.27;6.00;;;10.10;99.90;;;;;;5063517;28;20025;-79
2024/04/03 00:53:23;;;;;;;11.40;6.07;;;10.10;99.90;;;;;;5060340;28;20695;-79
2024/04/03 00:55:50;;;;;;;11.73;5.93;;;10.10;99.90;;;;;;5065723;28;20069;-80
2024/04/03 00:58:18;;;;;;;12.60;5.78;;;10.10;99.90;;;;;;5057393;28;20036;-79
2024/04/03 01:00:46;;;;;;;10.35;5.70;;;10.10;99.90;;;;;;5054617;28;20016;-79
2024/04/03 01:03:15;;;;;;;13.18;5.75;;;10.10;99.90;;;;;;5068610;28;20385;-79
2024/04/03 01:05:40;;;;;;;12.10;6.00;;;10.20;99.90;;;;;;5070452;28;20038;-79
2024/04/03 01:08:09;;;;;;;13.40;5.57;;;10.20;99.90;;;;;;5068694;28;20032;-79
2024/04/03 01:10:38;;;;;;;11.52;5.20;;;10.10;99.90;;;;;;5069077;28;20314;-79
2024/04/03 01:13:03;;;;;;;10.07;4.60;;;10.10;99.90;;;;;;5068976;28;20465;-79
2024/04/03 01:15:32;;;;;;;11.65;5.30;;;10.10;99.90;;;;;;5061829;28;20021;-79
2024/04/03 01:17:57;;;;;;;13.52;4.93;;;10.10;99.90;;;;;;5068370;28;20362;-79
2024/04/03 01:20:26;;;;;;;17.42;6.40;;;10.10;99.90;;;;;;5068295;28;20025;-79
2024/04/03 01:22:55;;;;;;;13.77;5.82;;;10.10;99.90;;;;;;5068729;28;20029;-79
2024/04/03 01:25:20;;;;;;;12.07;5.65;;;10.10;99.90;;;;;;5069978;28;20035;-79
2024/04/03 01:27:49;;;;;;;10.00;4.85;;;10.10;99.90;;;;;;5068237;28;20021;-79
2024/04/03 01:30:17;;;;;;;14.23;5.32;;;10.20;99.90;;;;;;5060069;28;20043;-79
2024/04/03 01:32:45;;;;;;;10.20;4.82;;;10.10;99.90;;;;;;5052717;28;20031;-79
2024/04/03 01:35:10;;;;;;;8.95;4.78;;;10.10;99.90;;;;;;5068553;28;20054;-79
2024/04/03 01:37:39;;;;;;;12.95;5.13;;;10.10;99.90;;;;;;5066742;28;20092;-79
2024/04/03 01:40:08;;;;;;;10.95;4.60;;;10.10;99.90;;;;;;5064765;28;20024;-79
2024/04/03 01:42:33;;;;;;;11.85;4.65;;;10.10;99.90;;;;;;5051944;28;20321;-79
2024/04/03 01:44:59;;;;;;;11.07;5.07;;;10.10;99.90;;;;;;5068128;28;20101;-79
2024/04/03 01:47:26;;;;;;;10.73;5.00;;;10.10;99.90;;;;;;5068218;28;20044;-79
2024/04/03 01:49:59;;;;;;;11.90;4.75;;;10.10;99.90;;;;;;5059717;28;20135;-79
2024/04/03 01:52:25;;;;;;;13.70;5.60;;;10.10;99.90;;;;;;5061253;28;20442;-79
2024/04/03 01:54:51;;;;;;;10.80;5.32;;;10.10;99.90;;;;;;5069067;28;20155;-79
2024/04/03 01:57:16;;;;;;;11.65;5.40;;;10.00;99.90;;;;;;5068114;28;20057;-79
2024/04/03 01:59:42;;;;;;;13.45;5.22;;;10.00;99.90;;;;;;5047864;28;20021;-79
2024/04/03 02:02:11;;;;;;;18.63;5.68;;;10.10;99.90;;;;;;5063765;28;20032;-79
2024/04/03 02:04:37;;;;;;;9.55;5.00;;;10.10;99.90;;;;;;5068193;28;20028;-79
2024/04/03 02:07:03;;;;;;;7.05;4.38;;;10.10;99.90;;;;;;5068153;28;20043;-79
2024/04/03 02:09:28;;;;;;;16.25;5.50;;;10.00;99.90;;;;;;5068290;28;20024;-79
2024/04/03 02:11:54;;;;;;;14.30;5.72;;;10.00;99.90;;;;;;5068108;28;20082;-79
2024/04/03 02:14:20;;;;;;;15.13;5.75;;;10.00;99.90;;;;;;5067794;28;20020;-79
2024/04/03 02:16:46;;;;;;;11.18;5.45;;;10.00;99.90;;;;;;5060389;28;20104;-79
2024/04/03 02:19:15;;;;;;;15.73;5.07;;;10.00;99.90;;;;;;5069705;28;20096;-79
2024/04/03 02:21:41;;;;;;;14.93;6.30;;;10.00;99.90;;;;;;5069272;28;20025;-80
2024/04/03 02:24:07;;;;;;;15.88;5.72;;;9.90;99.90;;;;;;5052923;28;20116;-79
2024/04/03 02:26:33;;;;;;;16.02;6.25;;;9.90;99.90;;;;;;5058145;28;20036;-79
2024/04/03 02:28:58;;;;;;;14.05;5.47;;;9.90;99.90;;;;;;5068904;28;20036;-79
2024/04/03 02:31:24;;;;;;;10.32;5.57;;;9.90;99.90;;;;;;5072002;28;20071;-78
2024/04/03 02:33:50;;;;;;;17.85;6.03;;;10.00;99.90;;;;;;5060938;28;20024;-79
2024/04/03 02:36:16;;;;;;;16.35;6.43;;;10.00;99.90;;;;;;5067709;28;20139;-79
2024/04/03 02:38:42;;;;;;;15.57;6.65;;;10.00;99.90;;;;;;5072522;28;20024;-79
2024/04/03 02:41:11;;;;;;;16.80;6.63;;;9.90;99.90;;;;;;5070217;28;20354;-79
2024/04/03 02:43:37;;;;;;;11.88;6.50;;;10.00;99.90;;;;;;5070160;28;20020;-79
2024/04/03 02:46:02;;;;;;;19.80;7.47;;;10.00;99.90;;;;;;5057384;28;20229;-79
2024/04/03 02:48:28;;;;;;;16.55;7.13;;;10.00;99.90;;;;;;5069963;28;20036;-79
2024/04/03 02:51:05;;;;;;;15.98;6.88;;;10.00;99.90;;;;;;5059296;28;20505;-79
2024/04/03 02:53:34;;;;;;;15.68;7.20;;;10.00;99.90;;;;;;5062098;28;20044;-79
2024/04/03 02:56:06;;;;;;;18.20;7.22;;;10.00;99.90;;;;;;5072717;28;20434;-79
2024/04/03 02:58:33;;;;;;;16.20;7.47;;;10.00;99.90;;;;;;5070874;28;20059;-79
2024/04/03 03:00:59;;;;;;;17.05;7.13;;;10.00;99.90;;;;;;5070606;28;20017;-79
2024/04/03 03:03:26;;;;;;;21.13;7.07;;;10.00;99.90;;;;;;5063460;28;20576;-80
2024/04/03 03:05:54;;;;;;;18.95;8.18;;;10.00;99.90;;;;;;5064692;28;20040;-79
2024/04/03 03:08:20;;;;;;;23.20;7.22;;;10.00;99.90;;;;;;5062453;28;20101;-79
2024/04/03 03:10:46;;;;;;;19.33;7.32;;;10.00;99.90;;;;;;5064148;28;20013;-79
2024/04/03 03:13:12;;;;;;;15.30;7.80;;;10.00;99.90;;;;;;5075474;28;20510;-78
2024/04/03 03:15:38;;;;;;;13.07;6.82;;;9.90;99.90;;;;;;5069993;28;20107;-79
2024/04/03 03:18:04;;;;;;;18.85;7.30;;;10.00;99.90;;;;;;5058420;28;20112;-79
2024/04/03 03:20:29;;;;;;;19.17;8.00;;;9.90;99.90;;;;;;5071623;28;20411;-79
2024/04/03 03:22:55;;;;;;;13.52;7.78;;;9.90;99.90;;;;;;5061365;28;20079;-79
2024/04/03 03:25:21;;;;;;;9.13;7.05;;;9.90;99.90;;;;;;5070105;28;20029;-79
2024/04/03 03:27:47;;;;;;;19.73;8.60;;;9.90;99.90;;;;;;5060093;28;20473;-78
2024/04/03 03:30:12;;;;;;;15.55;8.95;;;9.90;99.90;;;;;;5065602;28;20097;-79
2024/04/03 03:32:38;;;;;;;19.10;9.50;;;9.90;99.90;;;;;;5061695;28;20082;-79
2024/04/03 03:35:04;;;;;;;22.33;9.48;;;9.90;99.90;;;;;;5069642;28;20028;-79
2024/04/03 03:37:33;;;;;;;23.60;10.23;;;9.90;99.90;;;;;;5061082;28;20024;-80
2024/04/03 03:40:01;;;;;;;20.48;8.23;;;9.90;99.90;;;;;;5069283;28;20107;-79
2024/04/03 03:42:26;;;;;;;18.90;8.50;;;9.80;99.90;;;;;;5068171;28;20032;-79
2024/04/03 03:44:52;;;;;;;17.15;9.23;;;9.80;99.90;;;;;;5053966;28;20020;-80
2024/04/03 03:47:20;;;;;;;22.08;10.02;;;9.80;99.90;;;;;;5069162;28;20063;-79
2024/04/03 03:52:36;;;;;;;18.92;9.60;;;9.90;99.90;;;;;;5062702;28;20409;-79
2024/04/03 03:55:06;;;;;;;20.80;9.70;;;9.90;99.90;;;;;;5060728;28;20028;-79
2024/04/03 03:57:32;;;;;;;19.73;10.30;;;9.90;99.90;;;;;;5068929;28;20119;-79
2024/04/03 03:59:59;;;;;;;19.77;10.02;;;9.90;99.90;;;;;;5069307;28;20345;-79
2024/04/03 04:02:25;;;;;;;21.63;9.43;;;9.90;99.90;;;;;;5060713;28;20047;-79
2024/04/03 04:04:52;;;;;;;21.65;10.00;;;9.90;99.90;;;;;;5058738;28;20032;-79
2024/04/03 04:07:22;;;;;;;19.75;9.43;;;9.90;99.90;;;;;;5060857;28;20043;-79
2024/04/03 04:09:51;;;;;;;18.95;9.68;;;9.80;99.90;;;;;;5065722;28;20020;-79
2024/04/03 04:12:18;;;;;;;20.15;9.68;;;9.80;99.90;;;;;;5070442;28;20498;-79
2024/04/03 04:14:51;;;;;;;19.65;10.30;;;9.80;99.90;;;;;;5067210;28;20026;-79
2024/04/03 04:17:18;;;;;;;25.55;10.93;;;9.90;99.90;;;;;;5069025;28;20207;-78
2024/04/03 04:19:44;;;;;;;22.88;9.63;;;9.90;99.90;;;;;;5067599;28;20112;-79
2024/04/03 04:22:10;;;;;;;29.83;11.80;;;9.90;99.90;;;;;;5070918;28;20104;-79
2024/04/03 04:24:37;;;;;;;15.23;9.32;;;9.80;99.90;;;;;;5070528;28;20044;-78
2024/04/03 04:27:07;;;;;;;17.05;8.75;;;9.90;99.90;;;;;;5070708;28;20234;-79
2024/04/03 04:29:45;;;;;;;17.15;9.20;;;9.80;99.90;;;;;;5071806;28;20504;-79
2024/04/03 04:32:11;;;;;;;22.88;10.63;;;9.90;99.90;;;;;;5070761;28;20028;-79
2024/04/03 04:34:40;;;;;;;20.25;9.90;;;9.90;99.90;;;;;;5070545;28;20044;-79
2024/04/03 04:37:06;;;;;;;23.52;9.60;;;9.90;99.90;;;;;;5073084;28;20385;-79
2024/04/03 04:39:58;;;;;;;22.65;10.63;;;9.90;99.90;;;;;;5074974;28;20453;-80
2024/04/03 04:42:27;;;;;;;15.10;8.07;;;9.90;99.90;;;;;;5073013;28;20666;-79
2024/04/03 04:44:52;;;;;;;22.02;8.93;;;9.90;99.90;;;;;;5071586;28;20044;-79
2024/04/03 04:47:18;;;;;;;21.60;9.90;;;9.80;99.90;;;;;;5063924;28;20033;-79
2024/04/03 04:49:44;;;;;;;13.43;8.20;;;9.90;99.90;;;;;;5063172;28;20079;-79
2024/04/03 04:52:10;;;;;;;20.85;8.27;;;9.80;99.90;;;;;;5070395;28;20028;-79
2024/04/03 04:54:35;;;;;;;17.73;8.27;;;9.90;99.90;;;;;;5068340;28;20103;-80
2024/04/03 04:57:01;;;;;;;20.23;9.27;;;9.90;99.90;;;;;;5055001;28;20070;-79
2024/04/03 04:59:27;;;;;;;15.63;7.10;;;9.90;99.90;;;;;;5069497;28;20024;-79
2024/04/03 05:01:53;;;;;;;29.67;8.85;;;9.90;99.90;;;;;;5071154;28;20125;-79
2024/04/03 05:04:21;;;;;;;17.65;7.00;;;9.90;99.90;;;;;;5073055;28;20085;-79
2024/04/03 05:06:50;;;;;;;15.82;7.10;;;9.90;99.90;;;;;;5069994;28;20367;-74
2024/04/03 05:09:15;;;;;;;20.85;7.78;;;9.90;99.90;;;;;;5060893;28;20132;-73
2024/04/03 05:11:41;;;;;;;21.15;7.55;;;9.90;99.90;;;;;;5066248;28;20107;-73
2024/04/03 05:14:07;;;;;;;10.30;5.38;;;9.90;99.90;;;;;;5059137;28;20381;-73
2024/04/03 05:16:33;;;;;;;11.40;6.65;;;9.90;99.90;;;;;;5067751;28;20028;-74
2024/04/03 05:19:00;;;;;;;13.82;6.28;;;9.90;99.90;;;;;;5067806;28;20077;-73
2024/04/03 05:21:25;;;;;;;10.52;5.40;;;9.90;99.90;;;;;;5067676;28;20474;-73
2024/04/03 05:23:51;;;;;;;13.52;6.40;;;9.90;99.90;;;;;;5046418;28;20021;-74
2024/04/03 05:26:17;;;;;;;22.58;6.65;;;9.90;99.90;;;;;;5047292;28;20032;-79
2024/04/03 05:28:43;;;;;;;14.15;5.93;;;9.90;99.90;;;;;;5057142;28;20086;-73
2024/04/03 05:31:11;;;;;;;11.60;5.65;;;10.00;99.90;;;;;;5064257;28;20029;-73
2024/04/03 05:33:38;;;;;;;18.13;5.82;;;10.00;99.90;;;;;;5056768;28;20029;-73
2024/04/03 05:36:08;;;;;;;17.23;5.50;;;10.00;99.90;;;;;;5068910;28;20028;-73
2024/04/03 05:38:35;;;;;;;14.80;4.25;;;10.00;99.90;;;;;;5068655;28;20139;-73
2024/04/03 05:41:00;;;;;;;12.98;5.10;;;10.00;99.90;;;;;;5068920;28;20557;-73
2024/04/03 05:43:27;;;;;;;16.73;5.07;;;10.10;99.90;;;;;;5067005;28;20130;-73
2024/04/03 05:45:55;;;;;;;11.20;4.15;;;10.10;99.90;;;;;;5059119;28;20061;-73
2024/04/03 05:48:24;;;;;;;15.23;4.75;;;10.10;99.90;;;;;;5068905;28;20021;-73
2024/04/03 05:51:02;;;;;;;12.05;4.00;;;10.10;99.90;;;;;;5060414;28;20024;-73
2024/04/03 05:53:28;;;;;;;9.95;3.90;;;10.10;99.90;;;;;;5068454;28;20154;-73
2024/04/03 05:56:02;;;;;;;12.30;4.45;;;10.20;99.90;;;;;;5067386;28;20182;-73
2024/04/03 05:58:28;;;;;;;14.43;4.95;;;10.20;99.90;;;;;;5067374;28;20021;-73
2024/04/03 06:00:55;;;;;;;10.80;4.13;;;10.20;99.90;;;;;;5067310;28;20035;-73
2024/04/03 06:03:21;;;;;;;14.15;4.68;;;10.20;99.90;;;;;;5061173;28;20017;-72
2024/04/03 06:05:58;;;;;;;12.93;4.50;;;10.20;99.90;;;;;;5071303;28;20049;-72
2024/04/03 06:08:25;;;;;;;11.90;3.40;;;10.30;99.90;;;;;;5071224;28;20031;-73
2024/04/03 06:10:52;;;;;;;6.28;2.80;;;10.30;99.90;;;;;;5072517;28;20039;-73
2024/04/03 06:13:21;;;;;;;7.80;3.85;;;10.30;99.90;;;;;;5070637;28;20124;-73
2024/04/03 06:15:47;;;;;;;12.57;3.88;;;10.30;99.90;;;;;;5071032;28;20474;-74
2024/04/03 06:18:13;;;;;;;9.10;3.28;;;10.30;99.90;;;;;;5071116;28;20432;-73
2024/04/03 06:20:40;;;;;;;7.97;2.85;;;10.30;99.90;;;;;;5070525;28;20111;-73
2024/04/03 06:23:08;;;;;;;17.92;4.70;;;10.30;99.90;;;;;;5070538;28;20024;-73
2024/04/03 06:25:33;;;;;;;6.82;3.13;;;10.40;99.90;;;;;;5070753;28;20473;-73
2024/04/03 06:27:59;;;;;;;14.05;3.72;;;10.30;99.90;;;;;;5070658;28;20028;-72
2024/04/03 06:30:24;;;;;;;12.55;3.75;;;10.40;99.90;;;;;;5062990;28;20482;-73
2024/04/03 06:32:53;;;;;;;12.88;4.13;;;10.40;99.90;;;;;;5061630;28;20020;-73
2024/04/03 06:35:18;;;;;;;11.05;3.35;;;10.40;99.90;;;;;;5071498;28;20450;-73
2024/04/03 06:37:44;;;;;;;5.30;2.80;;;10.50;99.90;;;;;;5064037;28;20040;-73
2024/04/03 06:40:10;;;;;;;8.68;3.78;;;10.50;99.90;;;;;;5062202;28;20438;-73
2024/04/03 06:42:37;;;;;;;11.57;3.22;;;10.60;99.90;;;;;;5070129;28;20485;-73
2024/04/03 06:45:04;;;;;;;10.18;3.65;;;10.70;99.90;;;;;;5071340;28;20021;-73
2024/04/03 06:47:29;;;;;;;13.20;3.50;;;10.70;99.90;;;;;;5070133;28;20497;-73
2024/04/03 06:49:56;;;;;;;10.18;3.55;;;10.80;99.90;;;;;;5071706;28;20029;-73
2024/04/03 06:52:29;;;;;;;10.00;3.38;;;10.80;99.90;;;;;;5061787;28;20033;-73
2024/04/03 06:54:55;;;;;;;12.93;3.45;;;10.90;99.90;;;;;;5069615;28;20039;-73
2024/04/03 06:57:22;;;;;;;16.08;4.07;;;10.80;99.90;;;;;;5069987;28;20473;-73
2024/04/03 06:59:48;;;;;;;8.48;3.38;;;10.90;99.90;;;;;;5068821;28;20025;-73
2024/04/03 07:02:13;;;;;;;14.20;4.00;;;10.90;99.90;;;;;;5065391;28;20028;-73
2024/04/03 07:04:39;;;;;;;9.63;3.72;;;10.90;99.90;;;;;;5061134;28;20120;-73
2024/04/03 07:07:07;;;;;;;6.68;3.05;;;10.80;99.90;;;;;;5070187;28;20445;-73
2024/04/03 07:09:33;;;;;;;9.52;3.60;;;10.80;99.90;;;;;;5071041;28;20025;-73
2024/04/03 07:12:05;;;;;;;13.43;3.38;;;10.80;99.90;;;;;;5069755;28;20024;-73
2024/04/03 07:14:31;;;;;;;14.63;3.88;;;10.70;99.90;;;;;;5069210;28;20024;-73
2024/04/03 07:16:57;;;;;;;7.93;3.13;;;10.70;99.90;;;;;;5053554;28;20016;-73
2024/04/03 07:19:22;;;;;;;10.63;3.60;;;10.70;99.90;;;;;;5069705;28;20120;-73
2024/04/03 07:21:54;;;;;;;14.90;4.20;;;10.80;99.90;;;;;;5069338;28;20111;-73
2024/04/03 07:24:22;;;;;;;17.10;4.70;;;10.80;99.90;;;;;;5069290;28;20060;-73
2024/04/03 07:26:48;;;;;;;11.73;4.10;;;10.70;99.90;;;;;;5070996;28;20025;-72
2024/04/03 07:29:14;;;;;;;9.05;3.58;;;10.70;99.90;;;;;;5070760;28;20024;-73
2024/04/03 07:31:41;;;;;;;9.55;3.90;;;10.70;99.90;;;;;;5069270;28;20425;-73
2024/04/03 07:34:07;;;;;;;9.63;4.13;;;10.70;99.90;;;;;;5070797;28;20027;-73
2024/04/03 07:36:34;;;;;;;9.27;3.65;;;10.60;99.90;;;;;;5069561;28;20020;-73
2024/04/03 07:39:00;;;;;;;8.57;3.63;;;10.60;99.90;;;;;;5069395;28;20508;-73
2024/04/03 07:41:30;;;;;;;12.25;3.72;;;10.70;99.90;;;;;;5070948;28;20048;-73
2024/04/03 07:43:59;;;;;;;7.65;3.50;;;10.70;99.90;;;;;;5068742;28;20607;-73
2024/04/03 07:46:28;;;;;;;8.25;3.60;;;10.70;99.90;;;;;;5069510;28;20028;-73
2024/04/03 07:48:56;;;;;;;8.18;3.83;;;10.60;99.90;;;;;;5070517;28;20028;-73
2024/04/03 07:51:41;;;;;;;7.22;3.50;;;10.70;99.90;;;;;;5070610;28;20101;-73
2024/04/03 07:54:06;;;;;;;7.47;3.75;;;10.80;99.90;;;;;;5050008;28;20021;-73
2024/04/03 07:56:32;;;;;;;5.30;2.90;;;11.00;99.90;;;;;;5067012;28;20549;-73
2024/04/03 07:59:02;;;;;;;9.45;3.38;;;11.20;99.90;;;;;;5070338;28;20111;-73
2024/04/03 08:01:27;;;;;;;8.52;3.70;;;11.40;99.90;;;;;;5070363;28;20036;-73
2024/04/03 08:03:53;;;;;;;8.82;3.80;;;11.60;99.90;;;;;;5068352;28;20033;-73
2024/04/03 08:06:24;;;;;;;6.65;3.50;;;11.80;99.90;;;;;;5068844;28;20035;-73
2024/04/03 08:08:50;;;;;;;14.07;3.78;;;12.00;99.90;;;;;;5070460;28;20029;-74
2024/04/03 08:11:15;;;;;;;8.02;3.83;;;12.10;99.90;;;;;;5068569;28;20169;-72
2024/04/03 08:13:41;;;;;;;8.13;3.63;;;12.10;99.90;;;;;;5067890;28;20132;-73
2024/04/03 08:16:08;;;;;;;13.82;4.07;;;12.20;99.90;;;;;;5068303;28;20020;-73
2024/04/03 08:18:35;;;;;;;5.63;3.22;;;12.30;99.90;;;;;;5069991;28;20019;-73
2024/04/03 08:21:04;;;;;;;9.38;3.65;;;12.40;99.90;;;;;;5068395;28;20517;-73
2024/04/03 08:23:33;;;;;;;8.90;3.25;;;12.50;99.90;;;;;;5069293;28;20028;-73
2024/04/03 08:26:07;;;;;;;9.32;3.65;;;12.60;99.90;;;;;;5069697;28;20329;-73
2024/04/03 08:28:37;;;;;;;8.40;3.55;;;12.40;99.90;;;;;;5067637;28;20016;-73
2024/04/03 08:31:09;;;;;;;6.82;4.13;;;12.60;99.90;;;;;;5069717;28;20444;-73
2024/04/03 08:33:34;;;;;;;11.43;4.18;;;12.50;99.90;;;;;;5067845;28;20370;-73
2024/04/03 08:36:01;;;;;;;8.95;4.10;;;12.60;99.90;;;;;;5069635;28;20017;-73
2024/04/03 08:38:34;;;;;;;10.25;4.70;;;12.70;99.90;;;;;;5069673;28;20096;-73
2024/04/03 08:41:00;;;;;;;6.45;4.10;;;12.70;99.90;;;;;;5068112;28;20034;-73
2024/04/03 08:43:26;;;;;;;8.70;3.58;;;12.70;99.90;;;;;;5069331;28;20024;-73
2024/04/03 08:45:55;;;;;;;7.68;3.08;;;12.90;99.90;;;;;;5069293;28;20040;-73
2024/04/03 08:48:22;;;;;;;7.80;3.25;;;13.10;99.90;;;;;;5068066;28;20020;-73
2024/04/03 08:51:00;;;;;;;6.78;3.53;;;13.40;99.90;;;;;;5068037;28;20089;-72
2024/04/03 08:53:28;;;;;;;7.38;2.88;;;13.60;99.90;;;;;;5069495;28;20040;-73
2024/04/03 08:56:00;;;;;;;10.20;3.58;;;13.70;99.90;;;;;;5071813;28;20100;-73
2024/04/03 08:58:29;;;;;;;9.13;3.75;;;13.60;99.90;;;;;;5069451;28;20495;-71
2024/04/03 09:00:56;;;;;;;8.13;3.53;;;13.40;99.90;;;;;;5069451;28;20017;-73
2024/04/03 09:03:22;;;;;;;9.02;3.40;;;13.20;99.90;;;;;;5068827;28;20020;-73
2024/04/03 09:05:52;;;;;;;10.82;3.13;;;12.90;99.90;;;;;;5069171;28;20016;-73
2024/04/03 09:08:17;;;;;;;10.20;3.27;;;12.60;99.90;;;;;;5069292;28;20108;-73
2024/04/03 09:10:44;;;;;;;7.25;2.80;;;12.50;99.90;;;;;;5069263;28;20447;-73
2024/04/03 09:13:11;;;;;;;8.95;2.78;;;12.50;99.90;;;;;;5067318;28;20016;-73
2024/04/03 09:15:37;;;;;;;11.90;2.63;;;12.40;99.90;;;;;;5069113;28;20096;-73
2024/04/03 09:18:05;;;;;;;5.57;2.25;;;12.40;99.90;;;;;;5067815;28;20016;-73
2024/04/03 09:20:31;;;;;;;8.68;2.40;;;12.50;99.90;;;;;;5069082;28;20017;-73
2024/04/03 09:22:57;;;;;;;5.35;2.78;;;12.60;99.90;;;;;;5068656;28;20029;-73
2024/04/03 09:25:27;;;;;;;5.63;2.25;;;12.40;99.90;;;;;;5067337;28;20385;-73
2024/04/03 09:28:04;;;;;;;7.93;2.83;;;12.40;99.90;;;;;;5068845;28;20027;-73
2024/04/03 09:30:30;;;;;;;6.97;2.42;;;12.50;99.90;;;;;;5069127;28;20028;-73
2024/04/03 09:33:05;;;;;;;6.70;2.15;;;12.40;99.90;;;;;;5060545;28;20119;-73
2024/04/03 09:35:35;;;;;;;5.72;2.13;;;12.50;99.90;;;;;;5069017;28;20024;-72
2024/04/03 09:38:02;;;;;;;5.65;2.35;;;12.40;99.90;;;;;;5067307;28;20381;-73
2024/04/03 09:40:29;;;;;;;6.63;2.33;;;12.50;99.90;;;;;;5070614;28;20430;-73
2024/04/03 09:42:56;;;;;;;4.97;3.05;;;12.50;99.90;;;;;;5071379;28;20519;-73
2024/04/03 09:45:23;;;;;;;4.55;2.05;;;12.60;99.90;;;;;;5072404;28;20012;-73
2024/04/03 09:47:59;;;;;;;5.93;2.63;;;12.70;99.90;;;;;;5071050;28;20039;-72
2024/04/03 09:50:42;;;;;;;4.00;2.58;;;12.90;99.90;;;;;;5066306;28;20166;-72
2024/04/03 09:53:15;;;;;;;4.60;2.38;;;12.90;99.90;;;;;;5057191;28;20181;-73
2024/04/03 09:55:43;;;;;;;3.85;2.25;;;12.90;99.90;;;;;;5062985;28;20013;-72
2024/04/03 09:58:29;;;;;;;3.97;2.22;;;13.10;99.90;;;;;;5071098;28;20020;-73
2024/04/03 10:00:57;;;;;;;8.15;2.60;;;13.20;99.90;;;;;;5072744;28;20025;-72
2024/04/03 10:03:34;;;;;;;3.15;2.40;;;13.40;99.90;;;;;;5072293;28;20527;-73
2024/04/03 10:06:12;;;;;;;2.72;2.17;;;13.50;99.90;;;;;;5072332;28;20023;-73
2024/04/03 10:08:42;;;;;;;7.55;2.53;;;13.50;99.90;;;;;;5072345;28;20025;-73
2024/04/03 10:11:12;;;;;;;4.18;1.90;;;13.60;99.90;;;;;;5072304;28;20025;-73
2024/04/03 10:13:39;;;;;;;3.17;2.08;;;13.60;99.90;;;;;;5072054;28;20047;-73
2024/04/03 10:16:06;;;;;;;5.35;2.30;;;13.70;99.90;;;;;;5070772;28;20507;-73
2024/04/03 10:18:38;;;;;;;3.25;1.95;;;13.60;99.90;;;;;;5072322;28;20027;-73
2024/04/03 10:21:05;;;;;;;2.40;1.85;;;13.60;99.90;;;;;;5071879;28;20013;-73
2024/04/03 10:23:49;;;;;;;5.53;2.38;;;13.60;99.90;;;;;;5070102;28;20013;-73
2024/04/03 10:26:17;;;;;;;2.95;2.08;;;13.50;99.90;;;;;;5072017;28;20031;-73
2024/04/03 10:28:45;;;;;;;4.10;2.50;;;13.40;99.90;;;;;;5070723;28;20067;-73
2024/04/03 10:31:17;;;;;;;3.72;2.53;;;13.40;99.90;;;;;;5071795;28;20017;-73
2024/04/03 10:33:42;;;;;;;4.63;2.55;;;13.30;99.90;;;;;;5063355;28;20013;-72
2024/04/03 10:36:08;;;;;;;2.92;2.25;;;13.00;99.90;;;;;;5070558;28;20123;-73
2024/04/03 10:38:37;;;;;;;3.78;2.40;;;13.00;99.90;;;;;;5064589;28;20029;-73
2024/04/03 10:41:05;;;;;;;3.33;2.60;;;13.10;99.90;;;;;;5070067;28;20532;-73
2024/04/03 10:43:35;;;;;;;3.35;1.83;;;13.10;99.90;;;;;;5071188;28;20075;-73
2024/04/03 10:46:01;;;;;;;4.25;2.75;;;13.00;99.90;;;;;;5070409;28;20058;-73
2024/04/03 10:48:26;;;;;;;3.70;2.53;;;12.90;99.90;;;;;;5061955;28;20090;-73
2024/04/03 10:50:54;;;;;;;5.20;2.67;;;12.80;99.90;;;;;;5069300;28;20074;-73
2024/04/03 10:53:20;;;;;;;5.05;1.95;;;12.70;99.90;;;;;;5063097;28;20029;-73
2024/04/03 10:55:47;;;;;;;6.47;2.80;;;12.70;99.90;;;;;;5071428;28;20013;-73
2024/04/03 10:58:13;;;;;;;3.70;2.50;;;12.60;99.90;;;;;;5071462;28;20016;-73
2024/04/03 11:00:41;;;;;;;6.10;2.35;;;12.70;99.90;;;;;;5063121;28;20021;-73
2024/04/03 11:03:10;;;;;;;6.95;3.00;;;12.70;99.90;;;;;;5069252;28;20066;-73
2024/04/03 11:05:37;;;;;;;7.20;2.70;;;12.90;99.90;;;;;;5071183;28;20085;-73
2024/04/03 11:08:03;;;;;;;3.40;2.20;;;12.90;99.90;;;;;;5061375;28;20388;-73
2024/04/03 11:10:30;;;;;;;3.17;2.13;;;12.80;99.90;;;;;;5069769;28;20078;-73
2024/04/03 11:13:02;;;;;;;2.92;1.80;;;12.80;99.90;;;;;;5069595;28;20032;-73
2024/04/03 11:15:28;;;;;;;3.17;1.50;;;12.90;99.90;;;;;;5070612;28;20019;-72
2024/04/03 11:17:54;;;;;;;4.45;1.70;;;13.00;99.90;;;;;;5070953;28;20517;-73
2024/04/03 11:20:20;;;;;;;1.85;1.10;;;13.10;99.90;;;;;;5069526;28;20027;-73
2024/04/03 11:22:48;;;;;;;2.40;1.42;;;13.50;99.90;;;;;;5062360;28;20105;-73
2024/04/03 11:25:14;;;;;;;1.45;1.35;;;13.80;99.90;;;;;;5070485;28;20021;-73
2024/04/03 11:27:39;;;;;;;2.67;1.55;;;14.00;99.90;;;;;;5070759;28;20020;-73
2024/04/03 11:30:07;;;;;;;1.30;1.13;;;14.30;99.90;;;;;;5069167;28;20427;-73
2024/04/03 11:32:33;;;;;;;5.75;1.60;;;14.60;99.90;;;;;;5069417;28;20031;-73
2024/04/03 11:39:29;;;;;;;;;;;;;;;;;;;;;
2024/04/03 11:42:35;;;;;;;4.82;1.95;;;14.90;99.90;;;;;;5039702;28;20032;-73
2024/04/03 11:45:16;;;;;;;3.53;1.58;;;14.70;99.90;;;;;;5069711;28;20513;-75
2024/04/03 11:47:43;;;;;;;3.95;2.33;;;14.80;99.90;;;;;;5070300;28;20031;-72
2024/04/03 11:51:14;;;;;;;6.15;2.67;;;14.70;99.90;;;;;;5067727;28;20062;-75
2024/04/03 11:57:10;;;;;;;4.93;2.58;;;14.20;99.90;;;;;;5071031;28;20043;-74
2024/04/03 11:59:40;;;;;;;7.03;3.00;;;14.20;99.90;;;;;;5069007;28;20017;-72
2024/04/03 12:02:05;;;;;;;6.40;2.58;;;14.10;99.90;;;;;;5069220;28;20017;-73
2024/04/03 12:04:34;;;;;;;3.15;1.85;;;14.10;99.90;;;;;;5060543;28;20396;-72
2024/04/03 12:07:01;;;;;;;2.97;1.50;;;14.10;99.90;;;;;;5070158;28;20024;-72
2024/04/03 12:09:27;;;;;;;4.07;1.70;;;14.20;99.90;;;;;;5070067;28;20021;-72
2024/04/03 12:11:55;;;;;;;2.75;1.65;;;14.20;99.90;;;;;;5070362;28;20438;-71
2024/04/03 12:14:21;;;;;;;3.15;1.20;;;14.30;99.90;;;;;;5069931;28;20051;-72
2024/04/03 12:16:52;;;;;;;1.90;1.30;;;14.40;99.90;;;;;;5070452;28;20049;-73
2024/04/03 12:22:03;;;;;;;3.22;1.15;;;14.10;99.90;;;;;;5070050;28;20369;-72
2024/04/03 12:24:28;;;;;;;1.20;0.80;;;14.00;99.90;;;;;;5069681;28;20099;-72
2024/04/03 12:26:54;;;;;;;2.13;0.98;;;14.00;99.90;;;;;;5068618;28;20071;-73
2024/04/03 12:29:20;;;;;;;2.55;1.20;;;13.80;99.90;;;;;;5070128;28;20021;-72
2024/04/03 12:31:46;;;;;;;2.90;1.40;;;13.70;99.90;;;;;;5069176;28;20029;-72
2024/04/03 12:34:12;;;;;;;3.53;1.35;;;13.50;99.90;;;;;;5052201;28;20024;-72
2024/04/03 12:36:41;;;;;;;3.90;1.23;;;13.40;99.90;;;;;;5068184;28;20024;-73
2024/04/03 12:39:09;;;;;;;2.92;1.52;;;13.30;99.90;;;;;;5068294;28;20029;-72
2024/04/03 12:41:36;;;;;;;3.80;1.17;;;13.40;99.90;;;;;;5068353;28;20215;-72
2024/04/03 12:44:02;;;;;;;2.25;0.98;;;13.40;99.90;;;;;;5067549;28;20021;-74
2024/04/03 12:46:28;;;;;;;3.75;0.95;;;13.40;99.90;;;;;;5069473;28;20036;-71
2024/04/03 12:48:57;;;;;;;3.00;1.30;;;13.30;99.90;;;;;;5068098;28;20052;-74
2024/04/03 12:51:23;;;;;;;2.58;1.20;;;13.20;99.90;;;;;;5068272;28;20040;-72
2024/04/03 12:53:49;;;;;;;1.27;0.80;;;13.10;99.90;;;;;;5068921;28;20016;-72
2024/04/03 12:56:15;;;;;;;3.50;1.00;;;13.00;99.90;;;;;;5068435;28;20111;-72
2024/04/03 12:58:41;;;;;;;3.40;0.90;;;13.00;99.90;;;;;;5069284;28;20024;-72
2024/04/03 13:01:07;;;;;;;0.85;0.82;;;13.00;99.90;;;;;;5068452;28;20024;-72